x

Montauk Point -23 Nm Ssw Of Montauk Point, Ny (44017) Wave Buoy

12:50am - Mon 26th Sep 2016 All times are EDT. -4 hours from GMT.

  • Sig Wave height 3.0ft
  • Swell Direction
  • Peak Period 10s
  • Average Period 5s
  • Wind
    16mph, 20mph gusts
  • Sea Temp 67°f
  • Air Temp 64°f
  • Sea Pressure 1022.3mb
  • Montauk Point -23 Nm Ssw Of Montauk Point, Ny
  • Montauk Point -23 Nm Ssw Of Montauk Point, Ny

More Historic Weather Station data

Upgrade to MSW Pro to gain access to the past 30 days of data for over 8000 Wavebouys and Weather Stations around the globe.

Join Pro

Comparision Forecast

View Surf forecast
   
Mon 09/26 12:50am 3ft 10s 5s 16 20 mph 1022.3mb 67f 64f
Sun 09/25 11:50pm 2.5ft 10s 4s 13 16 mph 1022.5mb 67f 64f
10:50pm 2.5ft 9s 4s 16 18 mph 1022.4mb 67f 64f
9:50pm 2.5ft 10s 5s 16 20 mph 1021.9mb 68f 65f
8:50pm 2.5ft 11s 5s 13 16 mph 1021.5mb 68f 65f
7:50pm 2.5ft 11s 5s 11 16 mph 1020.9mb 68f 65f
6:50pm 2.5ft 11s 6s 11 13 mph 1020.3mb 68f 65f
5:50pm 2.5ft 10s 6s 11 13 mph 1019.7mb 68f 65f
4:50pm 2.5ft 10s 5s 11 13 mph 1019.6mb 68f 64f
2:50pm 3.5ft 10s 5s 11 16 mph 1020.4mb 68f 61f
1:50pm 3.5ft 10s 6s 13 18 mph 1020.8mb 68f 60f
12:50pm 3.5ft 11s 5s 13 16 mph 1021.4mb 67f 59f
11:50am 3.5ft 11s 5s 11 16 mph 1021.8mb 67f 58f
10:50am 3.5ft 11s 5s 16 20 mph 1021.9mb 67f 58f
9:50am 4ft 11s 5s 16 20 mph 1021.8mb 67f 58f
8:50am 4ft 10s 5s 18 25 mph 1021.5mb 68f 58f
7:50am 4.5ft 11s 5s 16 20 mph 1021.5mb 68f 59f
6:50am 4.5ft 10s 5s 18 22 mph 1021mb 68f 59f
5:50am 4.5ft 11s 5s 20 25 mph 1020.4mb 68f 60f
4:50am 4.5ft 10s 6s 18 22 mph 1020mb 68f 61f
3:50am 4ft 11s 5s 13 18 mph 1019.9mb 68f 62f
2:50am 4.5ft 11s 6s 16 20 mph 1019.7mb 68f 63f
1:50am 4.5ft 11s 6s 13 20 mph 1019.7mb 68f 63f
12:50am 4.5ft 11s 6s 13 18 mph 1019.5mb 68f 64f
Sat 09/24 11:50pm 4.5ft 10s 5s 16 18 mph 1019.7mb 68f 64f
10:50pm 4ft 10s 5s 18 22 mph 1019.9mb 68f 65f
9:50pm 4.5ft 10s 6s 18 22 mph 1019.8mb 68f 65f
8:50pm 4ft 9s 6s 11 16 mph 1019.8mb 68f 65f
7:50pm 4ft 11s 6s 13 16 mph 1019.2mb 68f 66f
6:50pm 4ft 10s 6s 9 11 mph 1019mb 69f 65f
5:50pm 4ft 10s 6s 11 16 mph 1018.6mb 69f 65f
4:50pm 4.5ft 10s 6s 9 13 mph 1018.5mb 69f 65f
3:50pm 4.5ft 10s 6s 9 11 mph 1018.4mb 69f 63f
2:50pm 5ft 11s 6s 11 16 mph 1018.4mb 69f 63f
1:50pm 4.5ft 11s 6s 11 16 mph 1019mb 69f 62f
12:50pm 5ft 10s 6s 16 18 mph 1019.6mb 68f 62f
11:50am 5ft 10s 5s 16 20 mph 1019.3mb 68f 61f
10:50am 5ft 10s 5s 18 22 mph 1019.2mb 69f 62f
9:50am 6ft 6s 5s 18 22 mph 1019.1mb 69f 62f
8:50am 6ft 6s 5s 20 25 mph 1018.8mb 69f 62f
7:50am 6ft 6s 5s 25 29 mph 1018.2mb 69f 61f
6:50am 6ft 6s 5s 22 29 mph 1017.4mb 69f 62f
5:50am 6ft 6s 5s 22 27 mph 1016.9mb 69f 62f
4:50am 6.5ft 6s 5s 25 29 mph 1017mb 69f 61f
3:50am 6.5ft 6s 5s 25 29 mph 1016.8mb 69f 62f
2:50am 6ft 11s 5s 27 31 mph 1016.5mb 69f 65f
1:50am 5.5ft 11s 5s 27 31 mph 1016.2mb 69f 66f
12:50am 4.5ft 11s 5s 27 31 mph 1015.5mb 70f 67f
Fri 09/23 11:50pm 4ft 10s 7s 22 25 mph 1015.5mb 71f 69f
10:50pm 3.5ft 10s 6s 7
mph
1015.4mb 71f 72f
9:50pm 3.5ft 11s 6s 7 9 mph 1015mb 71f 72f
8:50pm 3.5ft 10s 6s 7 9 mph 1015.1mb 72f 72f
7:50pm 3.5ft 10s 6s 9
mph
1015.1mb 72f 72f
6:50pm 3.5ft 11s 6s 11 13 mph 1014.2mb 72f 71f
5:50pm 4ft 11s 7s 13
mph
1013.9mb 72f 72f
4:50pm 3.5ft 11s 7s 11 13 mph 1014.2mb 72f 72f
3:50pm 3.5ft 11s 7s 9
mph
1014.7mb 72f 72f
1:50pm 3.5ft 11s 7s 9 11 mph 1015.4mb 71f 72f
12:50pm 3.5ft 11s 7s 9 11 mph 1015.8mb 71f 71f
11:50am 3.5ft 11s 7s 7 9 mph 1016.3mb 71f 70f
10:50am 3.5ft 12s 7s  -  2 mph 1017.3mb 71f 72f
8:50am 3ft 9s 6s 9 11 mph 1017.6mb 69f 71f
7:50am 3ft 10s 6s 4
mph
1017.5mb 69f 70f
6:50am 3ft 11s 6s 2
mph
1017.4mb 69f 69f
5:50am 3ft 11s 6s 2
mph
1017.3mb 70f 69f
4:50am 3ft 9s 6s 4
mph
1017.4mb 70f 69f
3:50am 3ft 10s 6s 4 7 mph 1017.5mb 70f 69f
2:50am 3ft 7s 6s 4 7 mph 1017.8mb 70f 69f
1:50am 3ft 9s 6s 4 7 mph 1018.1mb 70f 69f
12:50am 3ft 10s 6s 7 9 mph 1018.3mb 70f 69f
Thu 09/22 11:50pm 3.5ft 9s 6s 7 9 mph 1019mb 70f 70f
10:50pm 3ft 10s 6s 7 9 mph 1019.6mb 70f 70f
9:50pm 2.5ft 7s 6s 7 9 mph 1019.9mb 71f 70f
8:50pm 3ft 11s 6s 9
mph
1019.9mb 71f 71f
7:50pm 3ft 10s 6s 9 11 mph 1019.8mb 72f 71f
6:50pm 3ft 11s 6s 9 11 mph 1019.8mb 72f 71f
5:50pm 2.5ft 10s 6s 9 11 mph 1020.1mb 72f 72f
4:50pm 2.5ft 11s 6s 9
mph
1020mb 73f 72f
3:50pm 2.5ft 11s 6s 9 11 mph 1020.1mb 73f 72f
2:50pm 2.5ft 11s 6s 9
mph
1020.3mb 72f 72f
1:50pm 2.5ft 11s 6s 9
mph
1020.5mb 72f 71f
12:50pm 2.5ft 11s 6s 9 11 mph 1021.2mb 72f 71f
11:50am 2.5ft 11s 6s 9
mph
1022mb 72f 71f
10:50am 2.5ft 11s 6s 7 9 mph 1022.2mb 72f 71f
9:50am 2.5ft 11s  -  7
mph
1022.6mb 71f 71f
8:50am 2.5ft 11s 6s 7
mph
1021.9mb 71f 70f
7:50am 2.5ft 10s 7s 9
mph
1021.5mb 71f 70f
6:50am 2.5ft 11s 7s 7 9 mph 1021.1mb 71f 70f